Time;durP1;ratioP1;P1;durP2;ratioP2;P2;SDS_P1;SDS_P2;PMS_P1;PMS_P2;Temp;Humidity;BMP_temperature;BMP_pressure;BME280_temperature;BME280_humidity;BME280_pressure;Samples;Min_cycle;Max_cycle;Signal;HPM_P1;HPM_P2
2022/03/23 00:00:46;;;;;;;;;74.67;56.67;;;;;-142.59;100.00;56100.38;5110958;27;49825;-70
2022/03/23 00:03:15;;;;;;;;;76.00;59.67;;;;;-142.59;100.00;56100.38;5111636;27;50084;-70
2022/03/23 00:05:41;;;;;;;;;75.50;59.50;;;;;-142.59;100.00;56100.38;5112685;27;49604;-69
2022/03/23 00:08:08;;;;;;;;;75.67;59.33;;;;;-142.59;100.00;56100.38;5112235;27;50713;-72
2022/03/23 00:10:34;;;;;;;;;72.67;58.33;;;;;-142.59;100.00;56100.38;5112034;27;49831;-73
2022/03/23 00:13:00;;;;;;;;;81.67;61.33;;;;;-142.59;100.00;56100.38;5112321;27;49795;-72
2022/03/23 00:15:25;;;;;;;;;71.75;56.00;;;;;-142.59;100.00;56100.38;5112420;27;49673;-67
2022/03/23 00:17:51;;;;;;;;;76.00;59.00;;;;;-142.59;100.00;56100.38;5111699;27;49818;-71
2022/03/23 00:20:16;;;;;;;;;80.67;60.33;;;;;-142.59;100.00;56100.38;5111887;27;49652;-70
2022/03/23 00:22:42;;;;;;;;;71.33;55.67;;;;;-142.59;100.00;56100.38;5112157;27;49971;-69
2022/03/23 00:25:08;;;;;;;;;69.75;55.25;;;;;-142.59;100.00;56100.38;5112575;27;49955;-69
2022/03/23 00:27:35;;;;;;;;;76.33;60.67;;;;;-142.59;100.00;56100.38;5111992;27;50668;-71
2022/03/23 00:30:01;;;;;;;;;78.33;60.33;;;;;-142.59;100.00;56100.38;5111945;27;49599;-69
2022/03/23 00:32:26;;;;;;;;;79.33;62.67;;;;;-142.59;100.00;56100.38;5112148;27;49722;-70
2022/03/23 00:34:52;;;;;;;;;81.00;60.67;;;;;-142.59;100.00;56100.38;5111933;27;49778;-69
2022/03/23 00:37:18;;;;;;;;;74.25;57.00;;;;;-142.59;100.00;56100.38;5111464;27;50074;-71
2022/03/23 00:39:43;;;;;;;;;70.25;54.00;;;;;-142.59;100.00;56100.38;5111756;27;49620;-72
2022/03/23 00:42:09;;;;;;;;;70.75;55.50;;;;;-142.59;100.00;56100.38;5111748;27;50190;-70
2022/03/23 00:44:34;;;;;;;;;72.50;56.00;;;;;-142.59;100.00;56100.38;5111983;27;50039;-70
2022/03/23 00:47:00;;;;;;;;;71.75;57.50;;;;;-142.59;100.00;56100.38;5111716;27;49849;-70
2022/03/23 00:49:25;;;;;;;;;71.50;57.25;;;;;-142.59;100.00;56100.38;5110225;27;49790;-69
2022/03/23 00:51:53;;;;;;;;;77.67;59.67;;;;;-142.59;100.00;56100.38;5111677;27;49849;-70
2022/03/23 00:54:19;;;;;;;;;73.25;54.50;;;;;-142.59;100.00;56100.38;5111634;27;49776;-70
2022/03/23 00:56:45;;;;;;;;;75.33;57.33;;;;;-142.59;100.00;56100.38;5111312;27;49744;-70
2022/03/23 00:59:11;;;;;;;;;73.50;55.00;;;;;-142.59;100.00;56100.38;5111547;27;49706;-69
2022/03/23 01:01:38;;;;;;;;;71.50;55.75;;;;;-142.59;100.00;56100.38;5111494;27;49771;-69
2022/03/23 01:04:03;;;;;;;;;74.67;57.33;;;;;-142.59;100.00;56100.38;5111833;27;49621;-68
2022/03/23 01:06:29;;;;;;;;;77.67;59.33;;;;;-142.59;100.00;56100.38;5111254;27;50321;-69
2022/03/23 01:08:54;;;;;;;;;80.33;57.00;;;;;-142.59;100.00;56100.38;5111194;27;49837;-68
2022/03/23 01:11:20;;;;;;;;;79.67;58.00;;;;;-142.59;100.00;56100.38;5111024;27;49537;-69
2022/03/23 01:13:45;;;;;;;;;72.00;56.00;;;;;-142.59;100.00;56100.38;5111240;27;50068;-69
2022/03/23 01:16:13;;;;;;;;;76.33;58.00;;;;;-142.59;100.00;56100.38;5110139;27;49784;-69
2022/03/23 01:18:39;;;;;;;;;74.00;54.33;;;;;-142.59;100.00;56100.38;5111092;27;49695;-68
2022/03/23 01:21:04;;;;;;;;;77.25;59.50;;;;;-142.59;100.00;56100.38;5111304;27;49768;-69
2022/03/23 01:23:30;;;;;;;;;74.33;58.67;;;;;-142.59;100.00;56100.38;5111551;27;49801;-69
2022/03/23 01:25:55;;;;;;;;;74.67;57.67;;;;;-142.59;100.00;56100.38;5111040;27;49899;-69
2022/03/23 01:28:21;;;;;;;;;75.00;59.67;;;;;-142.59;100.00;56100.38;5109614;27;49852;-71
2022/03/23 01:30:46;;;;;;;;;79.33;60.67;;;;;-142.59;100.00;56100.38;5111015;27;49864;-68
2022/03/23 01:33:12;;;;;;;;;75.00;58.00;;;;;-142.59;100.00;56100.38;5111605;27;50126;-69
2022/03/23 01:35:37;;;;;;;;;78.67;60.33;;;;;-142.59;100.00;56100.38;5111280;27;50304;-69
2022/03/23 01:38:02;;;;;;;;;74.33;59.33;;;;;-142.59;100.00;56100.38;5111182;27;49709;-69
2022/03/23 01:40:28;;;;;;;;;70.33;56.00;;;;;-142.59;100.00;56100.38;5110936;27;49553;-71
2022/03/23 01:42:53;;;;;;;;;77.00;58.00;;;;;-142.59;100.00;56100.38;5109676;27;49787;-69
2022/03/23 01:45:22;;;;;;;;;74.50;56.50;;;;;-142.59;100.00;56100.38;5110740;27;50186;-69
2022/03/23 01:47:47;;;;;;;;;74.00;57.25;;;;;-142.59;100.00;56100.38;5111159;27;49900;-68
2022/03/23 01:50:13;;;;;;;;;70.00;57.33;;;;;-142.59;100.00;56100.38;5109474;27;49954;-69
2022/03/23 01:52:39;;;;;;;;;77.00;60.00;;;;;-142.59;100.00;56100.38;5110755;27;49622;-68
2022/03/23 01:55:13;;;;;;;;;75.00;59.67;;;;;-142.59;100.00;56100.38;5110607;27;49987;-68
2022/03/23 01:57:40;;;;;;;;;73.67;56.33;;;;;-142.59;100.00;56100.38;5111228;27;50008;-68
2022/03/23 02:00:07;;;;;;;;;72.00;55.00;;;;;-142.59;100.00;56100.38;5110748;27;49801;-69
2022/03/23 02:02:33;;;;;;;;;70.00;55.50;;;;;-142.59;100.00;56100.38;5110852;27;49724;-69
2022/03/23 02:04:58;;;;;;;;;68.50;56.50;;;;;-142.59;100.00;56100.38;5110441;27;49698;-70
2022/03/23 02:07:24;;;;;;;;;79.67;59.00;;;;;-142.59;100.00;56100.38;5110226;27;49798;-69
2022/03/23 02:09:50;;;;;;;;;75.67;55.33;;;;;-142.59;100.00;56100.38;5110760;27;50035;-72
2022/03/23 02:12:16;;;;;;;;;75.67;58.67;;;;;-142.59;100.00;56100.38;5110899;27;49999;-68
2022/03/23 02:14:41;;;;;;;;;74.25;56.75;;;;;-142.59;100.00;56100.38;5110417;27;49835;-72
2022/03/23 02:17:07;;;;;;;;;73.67;57.67;;;;;-142.59;100.00;56100.38;5109039;27;50104;-69
2022/03/23 02:19:33;;;;;;;;;71.33;57.00;;;;;-142.59;100.00;56100.38;5110673;27;49876;-69
2022/03/23 02:21:59;;;;;;;;;76.33;59.33;;;;;-142.59;100.00;56100.38;5110602;27;49787;-69
2022/03/23 02:24:27;;;;;;;;;71.33;56.67;;;;;-142.59;100.00;56100.38;5108746;27;51734;-68
2022/03/23 02:26:54;;;;;;;;;65.75;53.50;;;;;-142.59;100.00;56100.38;5111915;27;49701;-68
2022/03/23 02:29:22;;;;;;;;;74.75;59.00;;;;;-142.59;100.00;56100.38;5113858;27;49822;-68
2022/03/23 02:31:48;;;;;;;;;73.50;57.75;;;;;-142.59;100.00;56100.38;5114474;27;49994;-68
2022/03/23 02:34:13;;;;;;;;;73.67;56.00;;;;;-142.59;100.00;56100.38;5112294;27;52668;-70
2022/03/23 02:36:39;;;;;;;;;75.33;58.33;;;;;-142.59;100.00;56100.38;5113839;27;49738;-68
2022/03/23 02:39:04;;;;;;;;;78.25;55.75;;;;;-142.59;100.00;56100.38;5113729;27;49818;-69
2022/03/23 02:41:30;;;;;;;;;72.67;56.00;;;;;-142.59;100.00;56100.38;5113617;27;49833;-69
2022/03/23 02:43:56;;;;;;;;;70.50;55.50;;;;;-142.59;100.00;56100.38;5113474;27;49796;-68
2022/03/23 02:46:22;;;;;;;;;72.00;55.25;;;;;-142.59;100.00;56100.38;5113611;27;49717;-68
2022/03/23 02:48:49;;;;;;;;;72.50;56.25;;;;;-142.59;100.00;56100.38;5113560;27;49732;-69
2022/03/23 02:51:14;;;;;;;;;67.00;54.25;;;;;-142.59;100.00;56100.38;5113696;27;49822;-71
2022/03/23 03:02:48;;;;;;;;;75.75;59.00;;;;;-142.59;100.00;56100.38;5113557;27;49847;-71
2022/03/23 03:05:14;;;;;;;;;76.50;58.25;;;;;-142.59;100.00;56100.38;5113307;27;50431;-70
2022/03/23 03:10:26;;;;;;;;;73.75;58.25;;;;;-142.59;100.00;56100.38;5113163;27;49836;-69
2022/03/23 03:12:55;;;;;;;;;73.67;54.67;;;;;-142.59;100.00;56100.38;5113637;27;49669;-69
2022/03/23 03:15:22;;;;;;;;;70.00;56.50;;;;;-142.59;100.00;56100.38;5113077;27;49890;-69
2022/03/23 03:17:47;;;;;;;;;76.67;56.67;;;;;-142.59;100.00;56100.38;5113383;27;50007;-68
2022/03/23 03:20:14;;;;;;;;;70.00;56.00;;;;;-142.59;100.00;56100.38;5113522;27;49870;-70
2022/03/23 03:22:40;;;;;;;;;74.25;56.50;;;;;-142.59;100.00;56100.38;5113182;27;49837;-68
2022/03/23 03:25:14;;;;;;;;;69.00;54.00;;;;;-142.59;100.00;56100.38;5112865;27;50843;-70
2022/03/23 03:27:40;;;;;;;;;70.67;56.33;;;;;-142.59;100.00;56100.38;5111447;27;49904;-69
2022/03/23 03:30:12;;;;;;;;;72.33;58.33;;;;;-142.59;100.00;56100.38;5113310;27;49638;-68
2022/03/23 03:32:38;;;;;;;;;69.25;54.00;;;;;-142.59;100.00;56100.38;5113235;27;49784;-69
2022/03/23 03:35:05;;;;;;;;;74.67;57.33;;;;;-142.59;100.00;56100.38;5112980;27;50832;-68
2022/03/23 03:37:31;;;;;;;;;71.50;54.25;;;;;-142.59;100.00;56100.38;5111586;27;49591;-69
2022/03/23 03:39:56;;;;;;;;;69.25;54.25;;;;;-142.59;100.00;56100.38;5112612;27;49891;-69
2022/03/23 03:42:22;;;;;;;;;68.00;53.00;;;;;-142.59;100.00;56100.38;5111492;27;49854;-70
2022/03/23 03:44:50;;;;;;;;;72.25;56.25;;;;;-142.59;100.00;56100.38;5112712;27;50652;-70
2022/03/23 03:47:16;;;;;;;;;65.33;52.33;;;;;-142.59;100.00;56100.38;5112766;27;49788;-69
2022/03/23 03:49:42;;;;;;;;;68.50;55.00;;;;;-142.59;100.00;56100.38;5112672;27;49693;-70
2022/03/23 03:52:09;;;;;;;;;72.75;56.00;;;;;-142.59;100.00;56100.38;5112532;27;49694;-68
2022/03/23 03:54:35;;;;;;;;;69.50;54.50;;;;;-142.59;100.00;56100.38;5112364;27;50829;-70
2022/03/23 03:57:00;;;;;;;;;64.75;52.00;;;;;-142.59;100.00;56100.38;5112306;27;49822;-68
2022/03/23 03:59:26;;;;;;;;;67.50;51.75;;;;;-142.59;100.00;56100.38;5112552;27;49725;-69
2022/03/23 04:01:51;;;;;;;;;50.50;42.50;;;;;-142.59;100.00;56100.38;5112676;27;49869;-68
2022/03/23 04:04:17;;;;;;;;;65.00;49.75;;;;;-142.59;100.00;56100.38;5112851;27;49883;-69
2022/03/23 04:06:42;;;;;;;;;60.50;46.50;;;;;-142.59;100.00;56100.38;5112393;27;49678;-68
2022/03/23 04:09:08;;;;;;;;;60.50;48.00;;;;;-142.59;100.00;56100.38;5112258;27;49776;-70
2022/03/23 04:11:34;;;;;;;;;55.00;45.00;;;;;-142.59;100.00;56100.38;5111948;27;49830;-71
2022/03/23 04:14:00;;;;;;;;;55.25;43.50;;;;;-142.59;100.00;56100.38;5112272;27;51581;-70
2022/03/23 04:16:25;;;;;;;;;34.50;27.75;;;;;-142.59;100.00;56100.38;5112073;27;49591;-71
2022/03/23 04:18:51;;;;;;;;;42.25;36.75;;;;;-142.59;100.00;56100.38;5112696;27;50115;-68
2022/03/23 04:21:16;;;;;;;;;37.25;34.00;;;;;-142.59;100.00;56100.38;5112413;27;49733;-68
2022/03/23 04:23:41;;;;;;;;;44.75;39.50;;;;;-142.59;100.00;56100.38;5112109;27;50588;-67
2022/03/23 04:26:07;;;;;;;;;38.50;32.25;;;;;-142.59;100.00;56100.38;5112265;27;49988;-72
2022/03/23 04:28:32;;;;;;;;;39.00;36.25;;;;;-142.59;100.00;56100.38;5111853;27;49671;-68
2022/03/23 04:30:59;;;;;;;;;37.00;34.50;;;;;-142.59;100.00;56100.38;5112462;27;49792;-68
2022/03/23 04:33:24;;;;;;;;;32.75;29.00;;;;;-142.59;100.00;56100.38;5111765;27;49829;-70
2022/03/23 04:35:50;;;;;;;;;37.50;30.75;;;;;-142.59;100.00;56100.38;5111752;27;49619;-68
2022/03/23 04:38:16;;;;;;;;;30.50;28.25;;;;;-142.59;100.00;56100.38;5110673;27;50050;-68
2022/03/23 04:40:41;;;;;;;;;39.50;33.25;;;;;-142.59;100.00;56100.38;5111912;27;49976;-69
2022/03/23 04:43:07;;;;;;;;;33.00;32.00;;;;;-142.59;100.00;56100.38;5110250;27;51508;-71
2022/03/23 04:45:32;;;;;;;;;28.50;25.25;;;;;-142.59;100.00;56100.38;5112036;27;49856;-68
2022/03/23 04:47:58;;;;;;;;;32.25;28.75;;;;;-142.59;100.00;56100.38;5111456;27;49884;-68
2022/03/23 04:50:23;;;;;;;;;22.00;18.00;;;;;-142.59;100.00;56100.38;5111315;27;49601;-68
2022/03/23 04:52:52;;;;;;;;;32.75;30.75;;;;;-142.59;100.00;56100.38;5111317;27;50583;-68
2022/03/23 04:55:18;;;;;;;;;35.50;32.00;;;;;-142.59;100.00;56100.38;5111300;27;49648;-70
2022/03/23 04:57:44;;;;;;;;;35.25;33.25;;;;;-142.59;100.00;56100.38;5111524;27;49926;-68
2022/03/23 05:00:13;;;;;;;;;37.25;32.75;;;;;-142.59;100.00;56100.38;5111991;27;49698;-68
2022/03/23 05:02:39;;;;;;;;;33.00;30.25;;;;;-142.59;100.00;56100.38;5111329;27;49675;-71
2022/03/23 05:05:08;;;;;;;;;31.25;30.50;;;;;-142.59;100.00;56100.38;5111202;27;49659;-69
2022/03/23 05:07:34;;;;;;;;;35.50;31.50;;;;;-142.59;100.00;56100.38;5111291;27;49667;-69
2022/03/23 05:10:00;;;;;;;;;39.75;34.25;;;;;-142.59;100.00;56100.38;5111729;27;49957;-69
2022/03/23 05:12:25;;;;;;;;;37.25;32.25;;;;;-142.59;100.00;56100.38;5111163;27;49798;-70
2022/03/23 05:14:51;;;;;;;;;31.50;26.50;;;;;-142.59;100.00;56100.38;5111425;27;49854;-72
2022/03/23 05:17:16;;;;;;;;;38.75;32.25;;;;;-142.59;100.00;56100.38;5109910;27;49788;-68
2022/03/23 05:19:42;;;;;;;;;40.50;30.00;;;;;-142.59;100.00;56100.38;5111728;27;49729;-72
2022/03/23 05:22:08;;;;;;;;;35.75;35.00;;;;;-142.59;100.00;56100.38;5110934;27;49721;-70
2022/03/23 05:24:34;;;;;;;;;36.25;33.00;;;;;-142.59;100.00;56100.38;5111198;27;50118;-71
2022/03/23 05:26:59;;;;;;;;;30.50;26.50;;;;;-142.59;100.00;56100.38;5111428;27;49871;-69
2022/03/23 05:29:25;;;;;;;;;41.00;34.50;;;;;-142.59;100.00;56100.38;5111586;27;50231;-68
2022/03/23 05:31:50;;;;;;;;;39.00;35.75;;;;;-142.59;100.00;56100.38;5110369;27;50627;-68
2022/03/23 05:34:16;;;;;;;;;38.75;28.00;;;;;-142.59;100.00;56100.38;5110444;27;49811;-72
2022/03/23 05:36:41;;;;;;;;;37.00;32.25;;;;;-142.59;100.00;56100.38;5109732;27;49815;-71
2022/03/23 05:39:07;;;;;;;;;35.75;35.25;;;;;-142.59;100.00;56100.38;5111104;27;49946;-69
2022/03/23 05:41:32;;;;;;;;;39.25;32.75;;;;;-142.59;100.00;56100.38;5110480;27;49728;-71
2022/03/23 05:43:58;;;;;;;;;34.00;31.25;;;;;-142.59;100.00;56100.38;5111065;27;50150;-69
2022/03/23 05:46:23;;;;;;;;;35.75;33.50;;;;;-142.59;100.00;56100.38;5117246;27;49798;-72
2022/03/23 05:48:49;;;;;;;;;44.25;40.50;;;;;-142.59;100.00;56100.38;5128352;27;49618;-66
2022/03/23 05:51:15;;;;;;;;;41.75;39.00;;;;;-142.59;100.00;56100.38;5127004;27;49764;-66
2022/03/23 05:53:40;;;;;;;;;45.75;37.75;;;;;-142.59;100.00;56100.38;5123779;27;49442;-65
2022/03/23 05:56:07;;;;;;;;;41.25;36.75;;;;;-142.59;100.00;56100.38;5125064;27;50178;-67
2022/03/23 05:58:34;;;;;;;;;56.75;43.25;;;;;-142.59;100.00;56100.38;5114238;27;49693;-67
2022/03/23 06:00:59;;;;;;;;;53.50;41.25;;;;;-142.59;100.00;56100.38;5110915;27;50947;-70
2022/03/23 06:03:25;;;;;;;;;55.50;41.00;;;;;-142.59;100.00;56100.38;5122959;27;49812;-69
2022/03/23 06:05:50;;;;;;;;;46.50;40.00;;;;;-142.59;100.00;56100.38;5115237;27;49945;-66
2022/03/23 06:08:15;;;;;;;;;52.25;41.25;;;;;-142.59;100.00;56100.38;5128995;27;49692;-72
2022/03/23 06:10:41;;;;;;;;;45.00;39.75;;;;;-142.59;100.00;56100.38;5119458;27;50175;-68
2022/03/23 06:13:06;;;;;;;;;49.25;41.00;;;;;-142.59;100.00;56100.38;5131914;27;49667;-74
2022/03/23 06:15:31;;;;;;;;;47.75;41.75;;;;;-142.59;100.00;56100.38;5129724;27;49688;-64
2022/03/23 06:17:57;;;;;;;;;45.75;39.50;;;;;-142.59;100.00;56100.38;5119306;27;49726;-69
2022/03/23 06:20:22;;;;;;;;;49.00;41.75;;;;;-142.59;100.00;56100.38;5112533;27;50734;-72
2022/03/23 06:22:47;;;;;;;;;49.75;39.75;;;;;-142.59;100.00;56100.38;5122320;27;49953;-63
2022/03/23 06:25:13;;;;;;;;;49.00;42.25;;;;;-142.59;100.00;56100.38;5130842;27;49384;-63
2022/03/23 06:27:38;;;;;;;;;55.25;43.50;;;;;-142.59;100.00;56100.38;5116255;27;49790;-72
2022/03/23 06:30:05;;;;;;;;;54.25;42.00;;;;;-142.59;100.00;56100.38;5116156;27;50044;-72
2022/03/23 06:32:33;;;;;;;;;58.00;47.50;;;;;-142.59;100.00;56100.38;5113888;27;49746;-73
2022/03/23 06:35:00;;;;;;;;;51.25;42.75;;;;;-142.59;100.00;56100.38;5113820;27;50234;-65
2022/03/23 06:37:26;;;;;;;;;60.75;43.75;;;;;-142.59;100.00;56100.38;5113992;27;50377;-65
2022/03/23 06:39:51;;;;;;;;;58.25;44.25;;;;;-142.59;100.00;56100.38;5113422;27;50759;-67
2022/03/23 06:42:16;;;;;;;;;57.50;47.00;;;;;-142.59;100.00;56100.38;5113487;27;49813;-68
2022/03/23 06:44:43;;;;;;;;;56.00;44.75;;;;;-142.59;100.00;56100.38;5113772;27;49755;-69
2022/03/23 06:47:08;;;;;;;;;61.25;49.50;;;;;-142.59;100.00;56100.38;5113897;27;49904;-70
2022/03/23 06:49:34;;;;;;;;;59.00;44.75;;;;;-142.59;100.00;56100.38;5113716;27;50920;-65
2022/03/23 06:51:59;;;;;;;;;56.50;44.75;;;;;-142.59;100.00;56100.38;5112750;27;49969;-64
2022/03/23 06:54:25;;;;;;;;;56.00;44.75;;;;;-142.59;100.00;56100.38;5112733;27;49787;-68
2022/03/23 06:56:51;;;;;;;;;64.50;51.00;;;;;-142.59;100.00;56100.38;5112771;27;49864;-69
2022/03/23 06:59:18;;;;;;;;;63.50;49.00;;;;;-142.59;100.00;56100.38;5113109;27;50836;-71
2022/03/23 07:01:43;;;;;;;;;57.75;46.75;;;;;-142.59;100.00;56100.38;5106899;27;49794;-71
2022/03/23 07:04:09;;;;;;;;;58.50;48.25;;;;;-142.59;100.00;56100.38;5113560;27;49844;-71
2022/03/23 07:06:34;;;;;;;;;53.00;45.00;;;;;-142.59;100.00;56100.38;5113617;27;49850;-71
2022/03/23 07:11:43;;;;;;;;;65.50;48.25;;;;;-142.59;100.00;56100.38;5107182;27;49563;-73
2022/03/23 07:14:09;;;;;;;;;59.25;48.75;;;;;-142.59;100.00;56100.38;5114813;27;49789;-72
2022/03/23 07:16:34;;;;;;;;;62.00;50.00;;;;;-142.59;100.00;56100.38;5113009;27;49852;-65
2022/03/23 07:18:59;;;;;;;;;59.75;48.50;;;;;-142.59;100.00;56100.38;5113084;27;50474;-71
2022/03/23 07:21:25;;;;;;;;;55.75;43.00;;;;;-142.59;100.00;56100.38;5112844;27;49661;-70
2022/03/23 07:23:50;;;;;;;;;44.75;38.00;;;;;-142.59;100.00;56100.38;5112983;27;49716;-67
2022/03/23 07:26:19;;;;;;;;;58.25;48.25;;;;;-142.59;100.00;56100.38;5113303;27;49690;-66
2022/03/23 07:28:45;;;;;;;;;55.25;44.50;;;;;-142.59;100.00;56100.38;5112658;27;50480;-66
2022/03/23 07:31:10;;;;;;;;;60.50;47.50;;;;;-142.59;100.00;56100.38;5112756;27;49859;-65
2022/03/23 07:33:36;;;;;;;;;59.50;47.75;;;;;-142.59;100.00;56100.38;5112931;27;49690;-66
2022/03/23 07:36:02;;;;;;;;;64.25;50.50;;;;;-142.59;100.00;56100.38;5111657;27;49733;-64
2022/03/23 07:38:27;;;;;;;;;59.50;48.00;;;;;-142.59;100.00;56100.38;5112726;27;49815;-63
2022/03/23 07:40:53;;;;;;;;;65.50;52.50;;;;;-142.59;100.00;56100.38;5112751;27;49743;-68
2022/03/23 07:43:18;;;;;;;;;57.25;47.25;;;;;-142.59;100.00;56100.38;5112664;27;49584;-65
2022/03/23 07:45:43;;;;;;;;;64.25;50.25;;;;;-142.59;100.00;56100.38;5112968;27;49659;-64
2022/03/23 07:48:09;;;;;;;;;64.00;49.50;;;;;-142.59;100.00;56100.38;5112284;27;49687;-66
2022/03/23 07:50:34;;;;;;;;;58.25;47.00;;;;;-142.59;100.00;56100.38;5112179;27;49709;-65
2022/03/23 07:53:00;;;;;;;;;49.00;43.75;;;;;-142.59;100.00;56100.38;5112649;27;49912;-65
2022/03/23 07:55:25;;;;;;;;;62.25;49.25;;;;;-142.59;100.00;56100.38;5112661;27;49637;-67
2022/03/23 07:57:51;;;;;;;;;53.00;43.25;;;;;-142.59;100.00;56100.38;5112217;27;50590;-65
2022/03/23 08:00:16;;;;;;;;;56.75;45.50;;;;;-142.59;100.00;56100.38;5112658;27;49892;-64
2022/03/23 08:02:42;;;;;;;;;61.75;49.25;;;;;-142.59;100.00;56100.38;5112394;27;49845;-66
2022/03/23 08:05:09;;;;;;;;;62.00;47.25;;;;;-142.59;100.00;56100.38;5112594;27;50035;-66
2022/03/23 08:07:35;;;;;;;;;58.50;47.00;;;;;-142.59;100.00;56100.38;5112023;27;50567;-66
2022/03/23 08:10:00;;;;;;;;;55.50;46.25;;;;;-142.59;100.00;56100.38;5112083;27;49795;-67
2022/03/23 08:12:26;;;;;;;;;64.50;48.75;;;;;-142.59;100.00;56100.38;5112329;27;50068;-66
2022/03/23 08:14:51;;;;;;;;;41.50;35.75;;;;;-142.59;100.00;56100.38;5105646;27;50044;-67
2022/03/23 08:17:17;;;;;;;;;53.50;43.00;;;;;-142.59;100.00;56100.38;5112255;27;50234;-67
2022/03/23 08:19:42;;;;;;;;;56.00;47.00;;;;;-142.59;100.00;56100.38;5112229;27;49888;-66
2022/03/23 08:22:09;;;;;;;;;56.75;44.50;;;;;-142.59;100.00;56100.38;5112100;27;49749;-71
2022/03/23 08:24:34;;;;;;;;;60.00;48.75;;;;;-142.59;100.00;56100.38;5111692;27;49872;-68
2022/03/23 08:27:00;;;;;;;;;53.50;45.50;;;;;-142.59;100.00;56100.38;5111376;27;50706;-71
2022/03/23 08:29:25;;;;;;;;;40.50;36.00;;;;;-142.59;100.00;56100.38;5112004;27;50136;-68
2022/03/23 08:31:52;;;;;;;;;47.75;39.25;;;;;-142.59;100.00;56100.38;5112213;27;49917;-66
2022/03/23 08:34:18;;;;;;;;;38.00;35.25;;;;;-142.59;100.00;56100.38;5112281;27;49679;-67
2022/03/23 08:36:43;;;;;;;;;44.50;40.25;;;;;-142.59;100.00;56100.38;5111814;27;49809;-69
2022/03/23 08:39:08;;;;;;;;;41.25;35.50;;;;;-142.59;100.00;56100.38;5111752;27;49794;-68
2022/03/23 08:41:34;;;;;;;;;31.75;30.25;;;;;-142.59;100.00;56100.38;5111943;27;50338;-65
2022/03/23 08:44:00;;;;;;;;;40.25;37.00;;;;;-142.59;100.00;56100.38;5111878;27;49907;-71
2022/03/23 08:46:25;;;;;;;;;35.50;33.50;;;;;-142.59;100.00;56100.38;5111356;27;50739;-69
2022/03/23 08:48:51;;;;;;;;;43.25;37.50;;;;;-142.59;100.00;56100.38;5111617;27;49793;-70
2022/03/23 08:51:17;;;;;;;;;28.00;26.75;;;;;-142.59;100.00;56100.38;5111808;27;49819;-67
2022/03/23 08:53:43;;;;;;;;;36.75;35.25;;;;;-142.59;100.00;56100.38;5111805;27;50046;-68
2022/03/23 08:56:10;;;;;;;;;43.00;37.00;;;;;-142.59;100.00;56100.38;5127510;27;51299;-71
2022/03/23 08:58:37;;;;;;;;;43.50;35.00;;;;;-142.59;100.00;56100.38;5111452;27;49747;-66
2022/03/23 09:01:02;;;;;;;;;10.00;10.00;;;;;-142.59;100.00;56100.38;5111612;27;49784;-67
2022/03/23 09:03:28;;;;;;;;;37.25;27.25;;;;;-142.59;100.00;56100.38;5111772;27;49785;-67
2022/03/23 09:05:53;;;;;;;;;25.25;23.50;;;;;-142.59;100.00;56100.38;5111153;27;50913;-70
2022/03/23 09:08:18;;;;;;;;;31.00;25.75;;;;;-142.59;100.00;56100.38;5111477;27;49596;-67
2022/03/23 09:10:44;;;;;;;;;34.50;31.00;;;;;-142.59;100.00;56100.38;5111747;27;49795;-67
2022/03/23 09:13:09;;;;;;;;;32.50;29.00;;;;;-142.59;100.00;56100.38;5111737;27;49931;-66
2022/03/23 09:15:35;;;;;;;;;37.25;32.00;;;;;-142.59;100.00;56100.38;5111351;27;49884;-71
2022/03/23 09:18:02;;;;;;;;;24.00;22.50;;;;;-142.59;100.00;56100.38;5111061;27;49833;-67
2022/03/23 09:20:28;;;;;;;;;37.50;33.00;;;;;-142.59;100.00;56100.38;5111197;27;49780;-71
2022/03/23 09:22:58;;;;;;;;;30.50;28.75;;;;;-142.59;100.00;56100.38;5111446;27;50027;-70
2022/03/23 09:25:24;;;;;;;;;24.50;22.50;;;;;-142.59;100.00;56100.38;5111071;27;50729;-71
2022/03/23 09:27:50;;;;;;;;;25.25;24.00;;;;;-142.59;100.00;56100.38;5110900;27;49749;-66
2022/03/23 09:30:15;;;;;;;;;31.00;26.75;;;;;-142.59;100.00;56100.38;5111355;27;49683;-65
2022/03/23 09:32:43;;;;;;;;;30.00;29.75;;;;;-142.59;100.00;56100.38;5111351;27;50007;-67
2022/03/23 09:35:10;;;;;;;;;34.25;28.00;;;;;-142.59;100.00;56100.38;5110771;27;49995;-67
2022/03/23 09:37:47;;;;;;;;;28.75;27.75;;;;;-142.59;100.00;56100.38;5114175;27;49802;-67
2022/03/23 09:40:18;;;;;;;;;31.00;26.00;;;;;-142.59;100.00;56100.38;5114912;27;50018;-66
2022/03/23 09:42:44;;;;;;;;;24.75;24.75;;;;;-142.59;100.00;56100.38;5114677;27;50270;-68
2022/03/23 09:45:59;;;;;;;;;25.75;25.75;;;;;-142.59;100.00;56100.38;5113245;27;51505;-73
2022/03/23 09:48:02;;;;;;;;;22.75;20.00;;;;;-142.59;100.00;56100.38;5106369;27;49921;-70
2022/03/23 09:50:29;;;;;;;;;26.75;25.00;;;;;-142.59;100.00;56100.38;5113932;27;49959;-67
2022/03/23 09:52:56;;;;;;;;;26.00;24.50;;;;;-142.59;100.00;56100.38;5114221;27;49842;-68
2022/03/23 09:55:22;;;;;;;;;23.75;22.50;;;;;-142.59;100.00;56100.38;5114079;27;50647;-69
2022/03/23 09:57:47;;;;;;;;;27.25;25.25;;;;;-142.59;100.00;56100.38;5113777;27;49886;-68
2022/03/23 10:00:13;;;;;;;;;13.75;12.25;;;;;-142.59;100.00;56100.38;5114189;27;49930;-73
2022/03/23 10:02:39;;;;;;;;;31.75;31.50;;;;;-142.59;100.00;56100.38;5114713;27;49834;-70
2022/03/23 10:05:44;;;;;;;;;31.00;27.00;;;;;-142.59;100.00;56100.38;5114267;27;50414;-77
2022/03/23 10:08:23;;;;;;;;;23.50;22.50;;;;;-142.59;100.00;56100.38;5114203;27;49729;-72
2022/03/23 10:11:26;;;;;;;;;24.00;22.25;;;;;-142.59;100.00;56100.38;5108095;27;49832;-71
2022/03/23 10:14:39;;;;;;;;;26.50;24.25;;;;;-142.59;100.00;56100.38;5114650;27;49940;-72
2022/03/23 10:17:42;;;;;;;;;29.50;25.75;;;;;-142.59;100.00;56100.38;5029570;28;51085;-72
2022/03/23 10:20:11;;;;;;;;;32.00;23.25;;;;;-142.59;100.00;56100.38;5029765;28;49952;-71
2022/03/23 10:22:48;;;;;;;;;23.75;20.25;;;;;-142.59;100.00;56100.38;5092033;27;49651;-72
2022/03/23 10:25:14;;;;;;;;;27.00;25.25;;;;;-142.59;100.00;56100.38;5114272;27;49617;-70
2022/03/23 10:27:40;;;;;;;;;27.75;26.50;;;;;-142.59;100.00;56100.38;5113685;27;49655;-70
2022/03/23 10:30:07;;;;;;;;;24.50;24.50;;;;;-142.59;100.00;56100.38;5113859;27;49864;-73
2022/03/23 10:32:37;;;;;;;;;26.00;22.25;;;;;-142.59;100.00;56100.38;5113968;27;49815;-71
2022/03/23 10:35:04;;;;;;;;;23.75;20.75;;;;;-142.59;100.00;56100.38;5130090;27;49963;-70
2022/03/23 10:37:32;;;;;;;;;10.50;9.00;;;;;-142.59;100.00;56100.38;5113657;27;50981;-72
2022/03/23 10:40:01;;;;;;;;;21.50;18.00;;;;;-142.59;100.00;56100.38;5113916;27;49940;-71
2022/03/23 10:42:30;;;;;;;;;23.50;21.25;;;;;-142.59;100.00;56100.38;5113901;27;49623;-70
2022/03/23 10:45:22;;;;;;;;;22.25;20.00;;;;;-142.59;100.00;56100.38;5114049;27;49614;-71
2022/03/23 10:47:49;;;;;;;;;15.50;15.00;;;;;-142.59;100.00;56100.38;5108774;27;49692;-72
2022/03/23 10:50:20;;;;;;;;;19.50;16.75;;;;;-142.59;100.00;56100.38;5113564;27;49687;-72
2022/03/23 10:52:56;;;;;;;;;22.75;19.00;;;;;-142.59;100.00;56100.38;5113394;27;49810;-73
2022/03/23 10:55:24;;;;;;;;;29.50;25.25;;;;;-142.59;100.00;56100.38;5113866;27;49936;-72
2022/03/23 10:57:49;;;;;;;;;23.25;19.50;;;;;-142.59;100.00;56100.38;5113125;27;50706;-69
2022/03/23 11:00:17;;;;;;;;;25.50;24.00;;;;;-142.59;100.00;56100.38;5113710;27;49786;-70
2022/03/23 11:02:47;;;;;;;;;25.50;23.75;;;;;-142.59;100.00;56100.38;5113506;27;50349;-70
2022/03/23 11:05:34;;;;;;;;;26.00;25.50;;;;;-142.59;100.00;56100.38;5113702;27;50049;-69
2022/03/23 11:08:19;;;;;;;;;24.25;21.00;;;;;-142.59;100.00;56100.38;5112988;27;51097;-70